logo
App data

I Expect You To Die

Play as a secret agent armed with telekinetic abilities on a mission to stop Zoraxis, a nefarious global weapons and pharmaceutical corporation.
Store | Hub | SteamDB | Site
Developer: Schell Games Publisher: Schell Games
Genre: Indie
Languages: English
Tags: VR (48), Puzzle (36), Indie (34), Funny (21), Cold War (10), Singleplayer (9), Action (9), First-Person (5)
Category: Single-player, Steam Achievements, Steam Trading Cards
Release date: Apr 25, 2017
Price: $24.99
Old userscore: 95% Metascore: 77%
Owners: 200,000 .. 500,000
Followers: 6,588
Peak concurrent players yesterday: 41
YouTube stats: 11,514 views and 100 comments for top 50 videos uploaded last week, 6 new videos uploaded yesterday.
Playtime total: 03:20 (average) 05:14 (median)

Steam Spy is still in beta, so expect major bugs.

Owners data:

Access restricted.

This feature is only available to users with special access rights. Sorry.

If you want to proceed, you need to register or log in first and then back Steam Spy on Patreon. Look for Indie or Pro pledge.

Don't forget to use the same email as on Steam Spy!

Audience in 2 weeks:

Access restricted.

This feature is only available to users with special access rights. Sorry.

If you want to proceed, you need to register or log in first and then back Steam Spy on Patreon. Look for Indie or Pro pledge.

Don't forget to use the same email as on Steam Spy!

Peak daily concurrent players:

CCU data courtesy of SteamDB. Used with permission.

Hourly concurrent players:

Daily Twitch stats:

Hourly Twitch stats:

Followers over time

Access restricted.

This feature is only available to users with special access rights. Sorry.

If you want to proceed, you need to register or log in first and then back Steam Spy on Patreon. Look for Indie or Pro pledge.

Don't forget to use the same email as on Steam Spy!

Views for top 50 videos on YouTube for this game:

Games similar to this one:

# Game Release date
Price
Score rank
(Userscore / Metascore)
Owners
Players
Playtime (Median)
1 Astro Emporia Feb 2, 2015 $0.99N/A (N/A)20,000 .. 50,0000%00:00 (00:00)
2 Marble Duel: Sphere-Matching Tactical Fantasy Nov 12, 2015 $14.99N/A (N/A)50,000 .. 100,0000%00:00 (00:00)
3 A Good Snowman Is Hard To Build Feb 25, 2015 $9.99N/A (N/A)50,000 .. 100,0000%00:00 (00:00)
4 Castle Jan 7, 2015 $4.99N/A (N/A)20,000 .. 50,0000%00:00 (00:00)
5 Quantum Rush Champions Dec 4, 2014 $9.99N/A (N/A)20,000 .. 50,0000%00:00 (00:00)
6 Cubot Jan 8, 2015 $1.99N/A (N/A)20,000 .. 50,0000%00:00 (00:00)
7 Laserlife Sep 22, 2015 $9.99N/A (N/A)20,000 .. 50,0000%00:00 (00:00)
8 Death Goat Jun 7, 2016 N/AN/A (N/A)20,000 .. 50,0000%00:00 (00:00)
9 Letter Quest: Grimm's Journey Nov 20, 2014 $7.99N/A (N/A/73%)100,000 .. 200,0000%00:00 (00:00)
10 Unhack Feb 20, 2014 $3.99N/A (N/A)20,000 .. 50,0000%00:00 (00:00)
11 Over The Void Nov 11, 2014 $4.99N/A (N/A)20,000 .. 50,0000%00:00 (00:00)
12 Bob Was Hungry Aug 19, 2015 $9.99N/A (N/A)50,000 .. 100,0000%00:00 (00:00)
13 Thief Town Sep 26, 2014 $7.99N/A (N/A)20,000 .. 50,0000%00:00 (00:00)
14 Pixel Puzzles 2: Birds Feb 20, 2015 $4.99N/A (N/A)200,000 .. 500,0000%00:00 (00:00)
15 Shutshimi Aug 25, 2015 $4.99N/A (N/A)50,000 .. 100,0000%00:00 (00:00)
16 Flame Over May 28, 2015 $11.99N/A (N/A)20,000 .. 50,0000%00:00 (00:00)
17 1931: Scheherazade at the Library of Pergamum Mar 26, 2015 $9.99N/A (N/A)0 .. 20,0000%00:00 (00:00)
18 Painters Guild Sep 1, 2015 $9.99N/A (N/A)20,000 .. 50,0000%00:00 (00:00)
19 in Space Apr 27, 2015 $0.99N/A (N/A)0 .. 20,0000%00:00 (00:00)
20 Streets of Chaos Jan 23, 2015 N/AN/A (N/A)100,000 .. 200,0000%00:00 (00:00)
21 Botology Jun 24, 2015 $0.99N/A (N/A)50,000 .. 100,0000%00:00 (00:00)
22 Venusian Vengeance Oct 25, 2012 $3.99N/A (N/A)20,000 .. 50,0000%00:00 (00:00)
23 Red Goblin: Cursed Forest May 15, 2015 $4.99N/A (N/A)0 .. 20,0000%00:00 (00:00)
24 Avalanche 2: Super Avalanche Jun 11, 2015 $4.99N/A (N/A)50,000 .. 100,0000%00:00 (00:00)
25 Demon Hearts Aug 7, 2015 $3.99N/A (N/A)0 .. 20,0000%00:00 (00:00)
26 Stephen's Sausage Roll Apr 18, 2016 $29.99N/A (N/A/90%)20,000 .. 50,0000%00:00 (00:00)
27 Power of Love Jul 21, 2015 $0.99N/A (N/A)20,000 .. 50,0000%00:00 (00:00)
28 Pester Jan 25, 2013 $0.99N/A (N/A)100,000 .. 200,0000%00:00 (00:00)
29 Gem Wars: Attack of the Jiblets Dec 15, 2015 FreeN/A (N/A)20,000 .. 50,0000%00:00 (00:00)
30 Drizzlepath Mar 12, 2015 $0.99N/A (N/A)20,000 .. 50,0000%00:00 (00:00)
31 Game Type Sep 23, 2015 $2.99N/A (N/A)20,000 .. 50,0000%00:00 (00:00)
32 The Reject Demon: Toko Chapter 0 — Prelude May 9, 2015 $4.99N/A (N/A)20,000 .. 50,0000%00:00 (00:00)
33 Fingered Aug 18, 2015 $1.87N/A (N/A)50,000 .. 100,0000%00:00 (00:00)
34 Cursed Sight Aug 3, 2015 $4.99N/A (N/A)0 .. 20,0000%00:00 (00:00)
35 The Dolls: Reborn May 25, 2016 $4.99N/A (N/A)20,000 .. 50,0000%00:00 (00:00)
36 Narcissu 10th Anniversary Anthology Project Jan 27, 2016 $2.99N/A (N/A)50,000 .. 100,0000%00:00 (00:00)
37 Sentinel 4: Dark Star Aug 13, 2015 $6.99N/A (N/A)0 .. 20,0000%00:00 (00:00)
38 Sophie's Curse Mar 16, 2016 $4.99N/A (N/A)50,000 .. 100,0000%00:00 (00:00)
39 In Between Aug 21, 2015 $11.99N/A (N/A/68%)50,000 .. 100,0000%00:00 (00:00)
40 A grande bagunça espacial - The big space mess Apr 5, 2016 $0.99N/A (N/A)200,000 .. 500,0000%00:00 (00:00)
41 Robot vs Birds Zombies Jun 1, 2013 $0.99N/A (N/A)500,000 .. 1,000,0000%00:00 (00:00)
42 Party Saboteurs: After Party Mar 31, 2016 $9.99N/A (N/A)0 .. 20,0000%00:00 (00:00)
43 12 Labours of Hercules IV: Mother Nature (Platinum Edition) Dec 25, 2015 $2.99N/A (N/A)20,000 .. 50,0000%00:00 (00:00)
44 Burst Mar 14, 2016 N/AN/A (N/A)50,000 .. 100,0000%00:00 (00:00)
45 Lift It Jan 20, 2017 $4.99N/A (N/A)50,000 .. 100,0000%00:00 (00:00)
46 Melting Hearts: Our Love Will Grow 2 Apr 29, 2016 N/AN/A (N/A)20,000 .. 50,0000%00:00 (00:00)
47 Cibele Nov 2, 2015 $8.99N/A (N/A/71%)50,000 .. 100,0000%00:00 (00:00)
48 Prehistoric Tales May 25, 2016 $2.99N/A (N/A)0 .. 20,0000%00:00 (00:00)
49 Pro Gamer Manager Apr 28, 2016 $9.99N/A (N/A)20,000 .. 50,0000%00:00 (00:00)
50 Autumn Sep 23, 2014 $2.99N/A (N/A)100,000 .. 200,0000%00:00 (00:00)
51 Blitz Breaker Feb 2, 2016 $0.99N/A (N/A)0 .. 20,0000%00:00 (00:00)
52 Puzzler World 2 Oct 24, 2011 $4.99N/A (N/A)50,000 .. 100,0000%00:00 (00:00)
53 Diadra Empty Jul 21, 2015 $5.99N/A (N/A)20,000 .. 50,0000%00:00 (00:00)
54 Luxor Evolved Mar 1, 2012 $9.99N/A (N/A)50,000 .. 100,0000%00:00 (00:00)
55 AaAaAA!!! - A Reckless Disregard for Gravity Sep 3, 2009 $9.99N/A (N/A/81%)100,000 .. 200,0000%00:00 (00:00)
56 Cloudberry Kingdom Aug 2, 2013 N/AN/A (N/A/67%)20,000 .. 50,0000%00:00 (00:00)
57 Metal Drift Oct 22, 2009 $9.99N/A (N/A)20,000 .. 50,0000%00:00 (00:00)
58 Divide By Sheep Jul 2, 2015 $4.99N/A (N/A/83%)2,000,000 .. 5,000,0000%00:00 (00:00)
59 Luxor: 5th Passage Jan 25, 2011 $9.99N/A (N/A)50,000 .. 100,0000%00:00 (00:00)
60 Aqua Kitty - Milk Mine Defender Feb 3, 2014 $6.99N/A (N/A)20,000 .. 50,0000%00:00 (00:00)
61 Glowfish Sep 30, 2011 $9.99N/A (N/A)20,000 .. 50,0000%00:00 (00:00)
62 Grapple Mar 9, 2015 $6.99N/A (N/A)20,000 .. 50,0000%00:00 (00:00)
63 Governor of Poker 2 - Premium Edition Oct 11, 2010 $14.99N/A (N/A)20,000 .. 50,0000%00:00 (00:00)
64 Tribloos 2 Jan 12, 2013 $4.99N/A (N/A)100,000 .. 200,0005.26%00:01 (00:00)
65 Ancients of Ooga May 20, 2011 $9.99N/A (N/A)20,000 .. 50,0000%00:00 (00:00)
66 About Love, Hate and the other ones Dec 12, 2014 $6.99N/A (N/A)100,000 .. 200,0000%00:00 (00:00)
67 Blocks That Matter Aug 19, 2011 $4.99N/A (N/A/72%)200,000 .. 500,0000%00:00 (00:00)
68 On Rusty Trails Jun 13, 2016 $12.99N/A (N/A/77%)20,000 .. 50,0000%00:00 (00:00)
69 The guard of dungeon Mar 7, 2017 $6.99N/A (N/A)20,000 .. 50,0000%00:00 (00:00)
70 Citadel Aug 17, 2016 N/AN/A (N/A)0 .. 20,0000%00:00 (00:00)
71 Richie's Plank Experience Dec 13, 2017 $14.99N/A (N/A)50,000 .. 100,0000%00:00 (00:00)
72 Cold Waters Jun 5, 2017 $39.99N/A (N/A)50,000 .. 100,0000%00:00 (00:00)
73 Machine Hunt May 15, 2017 $2.99N/A (N/A)50,000 .. 100,0000%00:00 (00:00)
74 Golf for Workgroups Apr 6, 2017 $4.99N/A (N/A)0 .. 20,0000%00:00 (00:00)
75 Brother Wings Jan 10, 2017 $0.99N/A (N/A)100,000 .. 200,0000%00:00 (00:00)
76 Winexy Jan 13, 2017 $4.99N/A (N/A)50,000 .. 100,0000%00:00 (00:00)
77 Dungeon Painter Studio Feb 26, 2017 $14.99N/A (N/A)50,000 .. 100,00050%08:05 (05:23)
78 Bloop Reloaded Feb 6, 2015 FreeN/A (N/A)100,000 .. 200,0000%00:00 (00:00)
79 Ichi Jun 12, 2014 $4.99N/A (N/A)100,000 .. 200,0000%00:00 (00:00)
80 Strata May 29, 2014 $7.99N/A (N/A)20,000 .. 50,0000%00:00 (00:00)
81 The Blue Flamingo Nov 18, 2014 $4.99N/A (N/A/55%)100,000 .. 200,0000%00:00 (00:00)
82 Wildlife Park 3 May 12, 2014 $9.99N/A (N/A)100,000 .. 200,0000%00:00 (00:00)
83 Cyto Jul 10, 2014 $3.99N/A (N/A)20,000 .. 50,0000%00:00 (00:00)
84 Sokobond Jul 21, 2014 $9.99N/A (N/A/82%)20,000 .. 50,0000%00:00 (00:00)
85 Point Perfect Jul 17, 2014 $4.99N/A (N/A)50,000 .. 100,0000%00:00 (00:00)
86 Crazy Plant Shop Aug 4, 2014 $4.99N/A (N/A)20,000 .. 50,0000%00:00 (00:00)
87 Metrocide Oct 20, 2014 $12.99N/A (N/A/68%)50,000 .. 100,0000%00:00 (00:00)
88 Pressured Jul 18, 2014 $2.99N/A (N/A)200,000 .. 500,0000%00:00 (00:00)
89 REVOLVER360 RE:ACTOR Oct 24, 2014 $9.99N/A (N/A)50,000 .. 100,0000%00:00 (00:00)
90 Automation - The Car Company Tycoon Game Mar 12, 2015 $29.99N/A (N/A)200,000 .. 500,0000%00:00 (00:00)
91 Jamsouls Aug 24, 2014 $3.99N/A (N/A)0 .. 20,0000%00:00 (00:00)
92 Sweezy Gunner May 6, 2014 $3.99N/A (N/A)20,000 .. 50,0000%00:00 (00:00)
93 room13 Jan 13, 2017 $7.99N/A (N/A)20,000 .. 50,0000%00:00 (00:00)
94 Swipecart May 8, 2014 $2.99N/A (N/A)50,000 .. 100,0000%00:00 (00:00)

Tags over time:

Access restricted.

This feature is only available to users with special access rights. Sorry.

If you want to proceed, you need to register or log in first and then back Steam Spy on Patreon. Look for Indie or Pro pledge.

Don't forget to use the same email as on Steam Spy!

Owners of this game also own:

Access restricted.

This feature is only available to users with special access rights. Sorry.

If you want to proceed, you need to register or log in first and then back Steam Spy on Patreon. Look for Indie or Pro pledge.

Don't forget to use the same email as on Steam Spy!

Playtime distribution:

Access restricted.

This feature is only available to users with special access rights. Sorry.

If you want to proceed, you need to register or log in first and then back Steam Spy on Patreon. Look for Indie or Pro pledge.

Don't forget to use the same email as on Steam Spy!

Playtime (2 weeks):

Access restricted.

This feature is only available to users with special access rights. Sorry.

If you want to proceed, you need to register or log in first and then back Steam Spy on Patreon. Look for Indie or Pro pledge.

Don't forget to use the same email as on Steam Spy!

User reviews:

Login required.

Please register or log in to see this information.